createdAt,value
2022-12-18T00:00:53.552Z,47.80
2022-12-18T00:02:56.448Z,47.80
2022-12-18T00:04:58.340Z,47.80
2022-12-18T00:07:00.080Z,47.80
2022-12-18T00:09:02.706Z,47.80
2022-12-18T00:11:12.488Z,47.80
2022-12-18T00:13:14.591Z,47.80
2022-12-18T00:15:16.768Z,47.80
2022-12-18T00:17:18.527Z,47.80
2022-12-18T00:19:20.381Z,47.80
2022-12-18T00:21:22.855Z,47.80
2022-12-18T00:23:24.584Z,47.90
2022-12-18T00:25:26.383Z,47.80
2022-12-18T00:27:28.133Z,47.80
2022-12-18T00:29:29.938Z,47.80
2022-12-18T00:31:31.750Z,47.90
2022-12-18T00:33:35.981Z,48.10
2022-12-18T00:35:37.836Z,47.90
2022-12-18T00:37:39.660Z,47.80
2022-12-18T00:39:41.402Z,47.90
2022-12-18T00:41:43.189Z,47.90
2022-12-18T00:43:44.935Z,47.90
2022-12-18T00:45:46.886Z,47.90
2022-12-18T00:47:48.967Z,47.90
2022-12-18T00:49:51.043Z,47.90
2022-12-18T00:51:52.928Z,47.90
2022-12-18T00:53:54.992Z,47.90
2022-12-18T00:55:56.762Z,47.90
2022-12-18T00:57:58.776Z,47.80
2022-12-18T01:00:00.596Z,47.90
2022-12-18T01:02:02.482Z,47.90
2022-12-18T01:04:04.488Z,47.90
2022-12-18T01:06:07.347Z,47.90
2022-12-18T01:08:09.090Z,47.90
2022-12-18T01:10:12.358Z,47.90
2022-12-18T01:12:14.156Z,47.90
2022-12-18T01:14:16.060Z,47.90
2022-12-18T01:16:18.469Z,47.90
2022-12-18T01:18:20.307Z,48.00
2022-12-18T01:20:22.030Z,47.90
2022-12-18T01:22:23.812Z,47.90
2022-12-18T01:24:25.600Z,47.90
2022-12-18T01:26:27.663Z,47.90
2022-12-18T01:28:29.417Z,47.90
2022-12-18T01:30:31.235Z,47.90
2022-12-18T01:32:33.156Z,47.90
2022-12-18T01:34:36.380Z,47.90
2022-12-18T01:36:39.344Z,47.90
2022-12-18T01:38:41.144Z,47.90
2022-12-18T01:40:42.880Z,47.90
2022-12-18T01:42:45.359Z,47.90
2022-12-18T01:44:59.040Z,47.90
2022-12-18T01:47:01.057Z,48.00
2022-12-18T01:49:02.905Z,47.90
2022-12-18T01:51:05.379Z,47.90
2022-12-18T01:53:07.103Z,47.90
2022-12-18T01:55:10.004Z,47.90
2022-12-18T01:57:12.151Z,47.90
2022-12-18T01:59:14.169Z,47.90
2022-12-18T02:01:16.041Z,47.90
2022-12-18T02:03:17.968Z,47.90
2022-12-18T02:05:29.263Z,47.90
2022-12-18T02:07:34.865Z,47.80
2022-12-18T02:09:42.595Z,47.90
2022-12-18T02:11:45.266Z,47.90
2022-12-18T02:13:50.319Z,47.90
2022-12-18T02:15:58.623Z,47.90
2022-12-18T02:18:12.142Z,47.90
2022-12-18T02:20:22.888Z,48.00
2022-12-18T02:22:26.021Z,47.90
2022-12-18T02:24:34.124Z,48.00
2022-12-18T02:26:46.282Z,47.90
2022-12-18T02:28:52.367Z,48.00
2022-12-18T02:30:57.245Z,47.90
2022-12-18T02:33:00.329Z,47.90
2022-12-18T02:35:03.282Z,47.90
2022-12-18T02:37:06.742Z,47.90
2022-12-18T02:39:10.544Z,47.90
2022-12-18T02:41:17.091Z,48.00
2022-12-18T02:43:19.339Z,47.90
2022-12-18T02:45:21.167Z,47.90
2022-12-18T02:47:24.028Z,47.90
2022-12-18T02:49:31.970Z,47.90
2022-12-18T02:51:45.881Z,47.90
2022-12-18T02:54:10.863Z,47.90
2022-12-18T02:56:16.565Z,47.90
2022-12-18T02:58:18.479Z,47.90
2022-12-18T03:00:35.591Z,47.90
2022-12-18T03:02:43.126Z,48.00
2022-12-18T03:04:48.716Z,47.90
2022-12-18T03:06:55.773Z,47.90
2022-12-18T03:08:59.470Z,47.90
2022-12-18T03:11:12.807Z,47.90
2022-12-18T03:13:19.147Z,47.90
2022-12-18T03:15:27.532Z,47.90
2022-12-18T03:17:35.977Z,47.90
2022-12-18T03:19:38.918Z,47.90
2022-12-18T03:21:46.057Z,48.00
2022-12-18T03:23:50.844Z,48.00
2022-12-18T03:25:55.371Z,48.00
2022-12-18T03:28:00.595Z,48.00
2022-12-18T03:30:06.964Z,48.00
2022-12-18T03:32:12.470Z,48.00
2022-12-18T03:34:16.191Z,47.90
2022-12-18T03:36:21.492Z,48.10
2022-12-18T03:38:23.724Z,48.00
2022-12-18T03:40:43.898Z,48.00
2022-12-18T03:42:51.072Z,48.00
2022-12-18T03:45:12.443Z,48.10
2022-12-18T03:47:17.695Z,48.00
2022-12-18T03:49:21.118Z,48.00
2022-12-18T03:51:28.500Z,47.90
2022-12-18T03:53:40.578Z,48.00
2022-12-18T03:55:44.100Z,48.00
2022-12-18T03:57:46.724Z,48.00
2022-12-18T03:59:50.204Z,47.90
2022-12-18T04:01:54.589Z,47.90
2022-12-18T04:03:57.642Z,47.90
2022-12-18T04:06:00.473Z,48.00
2022-12-18T04:08:03.330Z,48.00
2022-12-18T04:10:08.613Z,48.00
2022-12-18T04:12:10.471Z,48.00
2022-12-18T04:14:17.561Z,48.00
2022-12-18T04:16:21.168Z,48.00
2022-12-18T04:18:26.751Z,48.00
2022-12-18T04:20:29.616Z,48.00
2022-12-18T04:22:31.438Z,48.60
2022-12-18T04:24:35.057Z,48.00
2022-12-18T04:26:49.752Z,48.00
2022-12-18T04:28:53.710Z,48.00
2022-12-18T04:30:56.191Z,48.00
2022-12-18T04:32:58.072Z,48.00
2022-12-18T04:34:59.996Z,48.00
2022-12-18T04:37:01.820Z,48.00
2022-12-18T04:39:05.511Z,48.00
2022-12-18T04:41:08.981Z,48.00
2022-12-18T04:43:11.495Z,48.00
2022-12-18T04:45:13.620Z,48.00
2022-12-18T04:47:15.380Z,48.00
2022-12-18T04:49:17.154Z,48.00
2022-12-18T04:51:24.638Z,48.00
2022-12-18T04:53:27.987Z,48.00
2022-12-18T04:55:29.783Z,48.00
2022-12-18T04:57:31.517Z,48.00
2022-12-18T04:59:33.293Z,48.00
2022-12-18T05:01:35.449Z,48.00
2022-12-18T05:03:39.463Z,48.00
2022-12-18T05:05:41.390Z,48.00
2022-12-18T05:07:43.157Z,48.00
2022-12-18T05:09:44.874Z,48.00
2022-12-18T05:11:47.016Z,48.00
2022-12-18T05:13:48.716Z,48.00
2022-12-18T05:15:52.801Z,48.00
2022-12-18T05:17:54.559Z,48.00
2022-12-18T05:19:56.362Z,48.00
2022-12-18T05:21:58.123Z,48.00
2022-12-18T05:23:59.875Z,48.00
2022-12-18T05:26:02.880Z,48.00
2022-12-18T05:28:04.837Z,48.00
2022-12-18T05:30:06.821Z,48.00
2022-12-18T05:32:08.564Z,48.00
2022-12-18T05:34:10.299Z,48.00
2022-12-18T05:36:13.129Z,48.00
2022-12-18T05:38:14.833Z,48.00
2022-12-18T05:40:16.685Z,48.00
2022-12-18T05:42:18.420Z,48.00
2022-12-18T05:44:20.228Z,48.00
2022-12-18T05:46:22.088Z,48.00
2022-12-18T05:48:24.235Z,48.00
2022-12-18T05:50:25.951Z,48.00
2022-12-18T05:52:27.831Z,48.10
2022-12-18T05:54:29.560Z,48.00
2022-12-18T05:56:31.299Z,48.00
2022-12-18T05:58:33.066Z,48.10
2022-12-18T06:00:35.579Z,48.10
2022-12-18T06:02:37.442Z,48.10
2022-12-18T06:04:39.327Z,48.00
2022-12-18T06:06:41.337Z,48.60
2022-12-18T06:08:46.405Z,48.10
2022-12-18T06:10:52.552Z,48.10
2022-12-18T06:12:54.303Z,48.10
2022-12-18T06:14:56.010Z,48.10
2022-12-18T06:16:57.817Z,48.00
2022-12-18T06:19:00.397Z,48.10
2022-12-18T06:21:02.352Z,48.10
2022-12-18T06:23:04.268Z,48.60
2022-12-18T06:25:06.436Z,48.10
2022-12-18T06:27:08.262Z,48.10
2022-12-18T06:29:10.075Z,48.10
2022-12-18T06:31:12.008Z,48.10
2022-12-18T06:33:13.844Z,48.10
2022-12-18T06:35:15.599Z,48.10
2022-12-18T06:37:17.444Z,48.10
2022-12-18T06:39:19.156Z,48.10
2022-12-18T06:41:21.900Z,48.10
2022-12-18T06:43:23.628Z,48.10
2022-12-18T06:45:25.551Z,48.10
2022-12-18T06:47:27.311Z,48.10
2022-12-18T06:49:30.758Z,48.10
2022-12-18T06:51:32.608Z,48.10
2022-12-18T06:53:34.615Z,48.60
2022-12-18T06:55:36.340Z,48.10
2022-12-18T06:57:38.484Z,48.10
2022-12-18T06:59:40.237Z,48.10
2022-12-18T07:01:42.232Z,48.10
2022-12-18T07:03:44.972Z,48.00
2022-12-18T07:05:47.234Z,48.10
2022-12-18T07:07:48.980Z,48.00
2022-12-18T07:09:51.115Z,48.10
2022-12-18T07:11:53.139Z,48.10
2022-12-18T07:13:55.229Z,48.10
2022-12-18T07:16:09.589Z,48.10
2022-12-18T07:18:15.180Z,48.10
2022-12-18T07:20:20.197Z,48.00
2022-12-18T07:22:23.255Z,48.10
2022-12-18T07:24:25.112Z,48.00
2022-12-18T07:26:27.081Z,48.00
2022-12-18T07:28:29.085Z,48.00
2022-12-18T07:30:31.097Z,48.00
2022-12-18T07:32:32.913Z,48.00
2022-12-18T07:34:35.133Z,48.00
2022-12-18T07:36:37.292Z,48.00
2022-12-18T07:38:39.181Z,48.00
2022-12-18T07:40:40.992Z,48.00
2022-12-18T07:42:42.900Z,47.90
2022-12-18T07:44:44.693Z,48.00
2022-12-18T07:46:46.557Z,47.90
2022-12-18T07:48:49.264Z,48.00
2022-12-18T07:50:52.257Z,47.90
2022-12-18T07:52:54.072Z,47.90
2022-12-18T07:54:56.228Z,47.90
2022-12-18T07:56:58.008Z,47.90
2022-12-18T07:59:00.283Z,47.90
2022-12-18T08:01:09.835Z,47.90
2022-12-18T08:03:17.092Z,47.90
2022-12-18T08:05:21.241Z,47.90
2022-12-18T08:07:23.363Z,47.90
2022-12-18T08:09:25.136Z,47.90
2022-12-18T08:11:28.347Z,47.90
2022-12-18T08:13:33.253Z,47.90
2022-12-18T08:15:35.149Z,47.90
2022-12-18T08:17:37.123Z,47.80
2022-12-18T08:19:39.011Z,47.80
2022-12-18T08:21:40.773Z,47.80
2022-12-18T08:23:43.723Z,47.80
2022-12-18T08:25:45.725Z,47.90
2022-12-18T08:27:47.555Z,47.80
2022-12-18T08:29:49.530Z,47.90
2022-12-18T08:31:51.708Z,47.90
2022-12-18T08:33:54.212Z,47.80
2022-12-18T08:35:57.197Z,47.80
2022-12-18T08:37:59.316Z,47.80
2022-12-18T08:40:01.311Z,47.80
2022-12-18T08:42:09.733Z,47.80
2022-12-18T08:44:12.009Z,47.80
2022-12-18T08:46:14.112Z,47.80
2022-12-18T08:48:20.671Z,47.80
2022-12-18T08:50:24.134Z,47.70
2022-12-18T08:52:26.338Z,47.70
2022-12-18T08:54:28.666Z,47.70
2022-12-18T08:56:30.730Z,47.70
2022-12-18T08:58:32.621Z,47.70
2022-12-18T09:00:34.481Z,47.70
2022-12-18T09:02:36.488Z,47.70
2022-12-18T09:04:38.443Z,47.70
2022-12-18T09:06:40.941Z,47.70
2022-12-18T09:08:43.713Z,47.70
2022-12-18T09:10:46.653Z,47.70
2022-12-18T09:12:48.553Z,47.70
2022-12-18T09:14:51.274Z,47.60
2022-12-18T09:16:53.204Z,47.70
2022-12-18T09:18:58.637Z,47.60
2022-12-18T09:21:00.517Z,47.70
2022-12-18T09:23:02.553Z,47.60
2022-12-18T09:25:04.588Z,47.60
2022-12-18T09:27:06.431Z,47.60
2022-12-18T09:29:08.458Z,47.50
2022-12-18T09:31:12.010Z,47.50
2022-12-18T09:33:17.635Z,47.60
2022-12-18T09:35:19.651Z,47.50
2022-12-18T09:37:21.837Z,47.50
2022-12-18T09:39:24.242Z,47.50
2022-12-18T09:41:26.221Z,47.50
2022-12-18T09:43:31.059Z,47.50
2022-12-18T09:45:40.129Z,47.60
2022-12-18T09:47:43.232Z,47.50
2022-12-18T09:49:46.639Z,47.50
2022-12-18T09:51:51.868Z,47.50
2022-12-18T09:53:58.414Z,47.40
2022-12-18T09:56:01.134Z,47.40
2022-12-18T09:58:10.087Z,47.40
2022-12-18T10:00:19.876Z,47.40
2022-12-18T10:02:23.833Z,47.40
2022-12-18T10:04:26.512Z,47.40
2022-12-18T10:06:34.311Z,47.50
2022-12-18T10:08:48.404Z,47.40
2022-12-18T10:10:50.257Z,47.50
2022-12-18T10:12:59.487Z,47.40
2022-12-18T10:15:04.496Z,47.40
2022-12-18T10:17:20.027Z,47.30
2022-12-18T10:19:31.840Z,47.40
2022-12-18T10:21:40.208Z,47.30
2022-12-18T10:23:52.798Z,47.30
2022-12-18T10:25:54.665Z,47.30
2022-12-18T10:27:58.548Z,47.30
2022-12-18T10:30:01.316Z,47.30
2022-12-18T10:32:03.369Z,47.30
2022-12-18T10:34:05.161Z,47.30
2022-12-18T10:36:07.264Z,47.20
2022-12-18T10:38:15.203Z,47.20
2022-12-18T10:40:22.242Z,47.20
2022-12-18T10:42:24.487Z,47.20
2022-12-18T10:44:26.328Z,47.20
2022-12-18T10:46:28.392Z,47.20
2022-12-18T10:48:31.269Z,47.20
2022-12-18T10:51:09.356Z,47.20
2022-12-18T10:53:00.783Z,47.20
2022-12-18T10:55:04.105Z,47.10
2022-12-18T10:57:16.204Z,47.10
2022-12-18T10:59:18.832Z,47.10
2022-12-18T11:01:20.890Z,47.00
2022-12-18T11:03:31.911Z,47.00
2022-12-18T11:05:34.457Z,47.10
2022-12-18T11:07:49.516Z,47.00
2022-12-18T11:10:01.671Z,47.10
2022-12-18T11:12:05.489Z,47.10
2022-12-18T11:14:22.565Z,47.10
2022-12-18T11:16:24.677Z,47.10
2022-12-18T11:18:29.668Z,47.10
2022-12-18T11:20:35.522Z,47.10
2022-12-18T11:22:38.049Z,47.20
2022-12-18T11:24:40.377Z,47.10
2022-12-18T11:26:42.335Z,47.10
2022-12-18T11:28:51.611Z,47.10
2022-12-18T11:31:12.302Z,47.20
2022-12-18T11:33:20.218Z,47.20
2022-12-18T11:35:42.337Z,47.10
2022-12-18T11:37:46.874Z,47.10
2022-12-18T11:39:54.687Z,47.10
2022-12-18T11:42:25.884Z,47.20
2022-12-18T11:44:36.702Z,47.20
2022-12-18T11:46:42.028Z,47.10
2022-12-18T11:49:12.064Z,47.00
2022-12-18T11:51:17.704Z,47.00
2022-12-18T11:53:19.872Z,46.90
2022-12-18T11:55:30.917Z,46.80
2022-12-18T11:57:46.111Z,46.90
2022-12-18T11:59:48.029Z,46.80
2022-12-18T12:01:52.031Z,46.90
2022-12-18T12:04:06.839Z,46.90
2022-12-18T12:06:15.786Z,46.80
2022-12-18T12:08:28.120Z,46.90
2022-12-18T12:10:48.592Z,46.80
2022-12-18T12:13:06.323Z,46.90
2022-12-18T12:15:28.381Z,46.90
2022-12-18T12:17:36.867Z,46.90
2022-12-18T12:19:41.568Z,46.90
2022-12-18T12:21:47.712Z,46.90
2022-12-18T12:23:56.158Z,46.90
2022-12-18T12:25:59.593Z,46.80
2022-12-18T12:28:07.216Z,46.70
2022-12-18T12:30:15.300Z,46.70
2022-12-18T12:32:35.911Z,46.70
2022-12-18T12:34:40.555Z,46.70
2022-12-18T12:37:00.668Z,46.70
2022-12-18T12:39:07.003Z,46.70
2022-12-18T12:41:10.612Z,46.70
2022-12-18T12:43:18.508Z,46.70
2022-12-18T12:45:29.399Z,46.70
2022-12-18T12:47:36.944Z,46.70
2022-12-18T12:49:40.948Z,46.70
2022-12-18T12:51:47.117Z,46.80
2022-12-18T12:53:49.585Z,46.80
2022-12-18T12:55:52.797Z,46.80
2022-12-18T12:58:03.786Z,46.90
2022-12-18T13:00:08.867Z,46.90
2022-12-18T13:02:17.284Z,46.80
2022-12-18T13:04:37.733Z,46.80
2022-12-18T13:09:07.464Z,46.90
2022-12-18T13:11:29.207Z,46.90
2022-12-18T13:13:43.791Z,46.90
2022-12-18T13:13:48.999Z,47.00
2022-12-18T13:16:07.457Z,47.00
2022-12-18T13:18:09.426Z,46.90
2022-12-18T13:20:12.519Z,46.90
2022-12-18T13:22:25.392Z,47.00
2022-12-18T13:24:28.673Z,46.90
2022-12-18T13:26:32.352Z,46.90
2022-12-18T13:28:34.615Z,46.90
2022-12-18T13:30:36.448Z,46.90
2022-12-18T13:32:38.343Z,46.90
2022-12-18T13:34:40.333Z,46.90
2022-12-18T13:36:42.172Z,47.00
2022-12-18T13:38:45.108Z,47.00
2022-12-18T13:40:47.040Z,47.00
2022-12-18T13:42:50.087Z,47.00
2022-12-18T13:44:52.543Z,47.10
2022-12-18T13:46:54.355Z,47.00
2022-12-18T13:48:57.892Z,47.00
2022-12-18T13:51:00.064Z,47.00
2022-12-18T13:53:01.868Z,47.10
2022-12-18T13:55:07.338Z,47.10
2022-12-18T13:57:27.976Z,47.10
2022-12-18T13:59:40.165Z,47.10
2022-12-18T14:01:49.544Z,47.00
2022-12-18T14:03:51.797Z,47.10
2022-12-18T14:05:55.179Z,47.10
2022-12-18T14:08:01.149Z,47.00
2022-12-18T14:10:18.692Z,47.10
2022-12-18T14:12:26.283Z,47.10
2022-12-18T14:14:33.575Z,47.10
2022-12-18T14:16:36.149Z,47.10
2022-12-18T14:18:39.075Z,47.10
2022-12-18T14:20:46.572Z,47.10
2022-12-18T14:22:52.551Z,47.10
2022-12-18T14:25:12.751Z,47.20
2022-12-18T14:27:22.486Z,47.20
2022-12-18T14:29:26.230Z,47.20
2022-12-18T14:31:28.975Z,47.20
2022-12-18T14:33:30.822Z,47.30
2022-12-18T14:35:36.207Z,47.20
2022-12-18T14:37:38.719Z,47.30
2022-12-18T14:39:40.540Z,47.30
2022-12-18T14:41:42.360Z,47.20
2022-12-18T14:43:45.426Z,47.20
2022-12-18T14:45:47.427Z,47.20
2022-12-18T14:47:49.455Z,47.20
2022-12-18T14:49:52.129Z,47.20
2022-12-18T14:51:55.312Z,47.20
2022-12-18T14:53:58.736Z,47.30
2022-12-18T14:56:00.933Z,47.30
2022-12-18T14:58:03.219Z,47.30
2022-12-18T15:00:06.361Z,47.30
2022-12-18T15:02:25.484Z,47.30
2022-12-18T15:04:32.442Z,47.30
2022-12-18T15:06:34.254Z,47.30
2022-12-18T15:08:37.497Z,47.30
2022-12-18T15:10:47.322Z,47.30
2022-12-18T15:12:58.000Z,47.40
2022-12-18T15:14:59.848Z,47.40
2022-12-18T15:17:02.939Z,47.30
2022-12-18T15:19:04.736Z,47.40
2022-12-18T15:21:11.088Z,47.30
2022-12-18T15:23:33.147Z,47.40
2022-12-18T15:25:36.627Z,47.40
2022-12-18T15:27:38.432Z,47.40
2022-12-18T15:29:40.179Z,47.40
2022-12-18T15:31:42.084Z,47.40
2022-12-18T15:33:44.046Z,47.40
2022-12-18T15:35:47.334Z,47.40
2022-12-18T15:37:49.991Z,47.30
2022-12-18T15:39:51.784Z,48.00
2022-12-18T15:41:53.563Z,47.40
2022-12-18T15:43:55.321Z,47.40
2022-12-18T15:45:57.159Z,47.40
2022-12-18T15:47:59.109Z,47.40
2022-12-18T15:50:00.853Z,47.40
2022-12-18T15:52:04.081Z,47.40
2022-12-18T15:54:07.259Z,47.40
2022-12-18T15:56:11.348Z,47.40
2022-12-18T15:58:13.092Z,47.40
2022-12-18T16:00:16.940Z,47.40
2022-12-18T16:02:19.277Z,47.40
2022-12-18T16:04:22.198Z,47.50
2022-12-18T16:06:23.945Z,47.50
2022-12-18T16:08:25.707Z,47.40
2022-12-18T16:10:27.818Z,47.40
2022-12-18T16:12:29.637Z,47.50
2022-12-18T16:14:32.011Z,47.40
2022-12-18T16:16:33.923Z,47.40
2022-12-18T16:18:35.652Z,47.40
2022-12-18T16:20:39.068Z,47.40
2022-12-18T16:22:40.821Z,47.50
2022-12-18T16:24:43.004Z,47.40
2022-12-18T16:26:45.190Z,47.40
2022-12-18T16:28:48.658Z,47.50
2022-12-18T16:30:50.467Z,47.40
2022-12-18T16:32:52.288Z,47.50
2022-12-18T16:34:54.052Z,47.50
2022-12-18T16:37:03.315Z,47.40
2022-12-18T16:39:07.269Z,47.40
2022-12-18T16:41:20.931Z,47.50
2022-12-18T16:43:22.633Z,47.50
2022-12-18T16:45:24.775Z,47.50
2022-12-18T16:47:26.552Z,47.50
2022-12-18T16:49:28.876Z,47.40
2022-12-18T16:51:30.599Z,47.40
2022-12-18T16:53:35.479Z,47.40
2022-12-18T16:55:38.345Z,47.50
2022-12-18T16:57:40.126Z,47.40
2022-12-18T16:59:41.875Z,47.40
2022-12-18T17:01:44.413Z,47.50
2022-12-18T17:03:51.876Z,47.50
2022-12-18T17:05:53.692Z,47.50
2022-12-18T17:07:55.401Z,47.40
2022-12-18T17:09:58.092Z,47.50
2022-12-18T17:12:04.031Z,47.50
2022-12-18T17:14:10.093Z,47.50
2022-12-18T17:16:12.380Z,47.50
2022-12-18T17:18:14.277Z,47.50
2022-12-18T17:20:15.987Z,47.50
2022-12-18T17:22:17.865Z,47.50
2022-12-18T17:24:20.246Z,47.50
2022-12-18T17:26:22.077Z,47.50
2022-12-18T17:28:24.499Z,47.40
2022-12-18T17:30:26.323Z,47.40
2022-12-18T17:32:28.079Z,47.40
2022-12-18T17:34:30.080Z,47.50
2022-12-18T17:36:32.629Z,47.50
2022-12-18T17:38:34.652Z,47.50
2022-12-18T17:40:36.444Z,47.50
2022-12-18T17:42:38.236Z,47.50
2022-12-18T17:44:39.954Z,47.50
2022-12-18T17:46:41.873Z,47.50
2022-12-18T17:48:43.661Z,47.50
2022-12-18T17:50:45.454Z,47.50
2022-12-18T17:52:48.077Z,47.50
2022-12-18T17:54:49.873Z,47.40
2022-12-18T17:56:51.573Z,47.30
2022-12-18T17:58:53.404Z,47.50
2022-12-18T18:00:56.243Z,47.40
2022-12-18T18:02:58.132Z,47.50
2022-12-18T18:04:59.910Z,47.50
2022-12-18T18:07:01.768Z,47.50
2022-12-18T18:09:03.741Z,47.40
2022-12-18T18:11:06.596Z,47.40
2022-12-18T18:13:18.179Z,47.50
2022-12-18T18:15:19.999Z,47.50
2022-12-18T18:17:21.767Z,47.50
2022-12-18T18:19:24.353Z,47.50
2022-12-18T18:21:26.616Z,47.50
2022-12-18T18:23:29.151Z,47.50
2022-12-18T18:25:30.888Z,47.50
2022-12-18T18:27:38.230Z,47.50
2022-12-18T18:29:40.416Z,47.50
2022-12-18T18:31:42.491Z,47.50
2022-12-18T18:33:44.405Z,47.50
2022-12-18T18:35:54.411Z,47.50
2022-12-18T18:37:56.517Z,47.50
2022-12-18T18:39:58.337Z,47.40
2022-12-18T18:42:00.108Z,47.50
2022-12-18T18:44:01.913Z,47.50
2022-12-18T18:46:04.608Z,47.40
2022-12-18T18:48:06.542Z,47.50
2022-12-18T18:50:09.440Z,47.50
2022-12-18T18:52:11.189Z,47.50
2022-12-18T18:54:12.924Z,47.50
2022-12-18T18:58:38.188Z,47.50
2022-12-18T19:00:40.165Z,47.50
2022-12-18T19:02:42.087Z,47.50
2022-12-18T19:04:46.617Z,47.50
2022-12-18T19:06:48.752Z,47.60
2022-12-18T19:08:51.601Z,47.50
2022-12-18T19:10:57.691Z,47.50
2022-12-18T19:12:59.767Z,47.50
2022-12-18T19:15:02.576Z,47.50
2022-12-18T19:17:04.642Z,47.50
2022-12-18T19:19:07.733Z,48.10
2022-12-18T19:21:10.074Z,47.50
2022-12-18T19:23:11.798Z,47.50
2022-12-18T19:25:13.560Z,47.50
2022-12-18T19:27:15.914Z,47.50
2022-12-18T19:29:17.772Z,47.50
2022-12-18T19:31:24.803Z,47.50
2022-12-18T19:33:44.603Z,47.50
2022-12-18T19:35:46.527Z,47.60
2022-12-18T19:37:48.395Z,47.50
2022-12-18T19:39:50.372Z,47.50
2022-12-18T19:41:52.233Z,47.50
2022-12-18T19:43:54.066Z,47.50
2022-12-18T19:45:55.975Z,47.50
2022-12-18T19:48:02.641Z,47.50
2022-12-18T19:50:06.545Z,47.50
2022-12-18T19:52:08.357Z,47.60
2022-12-18T19:54:16.172Z,47.50
2022-12-18T19:56:19.728Z,47.50
2022-12-18T19:58:21.549Z,47.60
2022-12-18T20:00:24.706Z,47.50
2022-12-18T20:02:26.626Z,47.50
2022-12-18T20:04:28.595Z,47.50
2022-12-18T20:06:34.701Z,47.50
2022-12-18T20:08:36.740Z,47.60
2022-12-18T20:10:38.560Z,47.60
2022-12-18T20:12:40.289Z,47.50
2022-12-18T20:14:42.076Z,47.50
2022-12-18T20:16:43.908Z,47.50
2022-12-18T20:18:46.093Z,47.50
2022-12-18T20:20:48.183Z,47.60
2022-12-18T20:22:52.356Z,47.60
2022-12-18T20:24:54.065Z,47.60
2022-12-18T20:26:56.208Z,47.50
2022-12-18T20:28:58.101Z,47.50
2022-12-18T20:31:04.221Z,47.50
2022-12-18T20:33:06.013Z,47.50
2022-12-18T20:35:07.968Z,48.10
2022-12-18T20:37:10.428Z,47.60
2022-12-18T20:39:15.045Z,47.60
2022-12-18T20:41:18.916Z,47.60
2022-12-18T20:43:20.728Z,47.50
2022-12-18T20:45:22.472Z,47.50
2022-12-18T20:47:24.241Z,47.50
2022-12-18T20:49:27.285Z,47.50
2022-12-18T20:51:29.040Z,47.50
2022-12-18T20:53:31.166Z,47.50
2022-12-18T20:55:32.995Z,47.50
2022-12-18T20:57:34.715Z,47.50
2022-12-18T20:59:42.058Z,47.50
2022-12-18T21:01:48.785Z,47.50
2022-12-18T21:03:51.432Z,47.50
2022-12-18T21:05:53.213Z,47.50
2022-12-18T21:07:55.009Z,47.50
2022-12-18T21:09:56.732Z,47.50
2022-12-18T21:11:58.551Z,47.50
2022-12-18T21:14:00.293Z,47.50
2022-12-18T21:16:02.088Z,47.50
2022-12-18T21:18:03.903Z,47.50
2022-12-18T21:20:06.027Z,47.50
2022-12-18T21:22:07.790Z,47.50
2022-12-18T21:24:09.930Z,47.40
2022-12-18T21:26:20.812Z,47.50
2022-12-18T21:28:22.586Z,47.50
2022-12-18T21:30:24.630Z,47.50
2022-12-18T21:32:26.443Z,47.50
2022-12-18T21:34:32.872Z,47.50
2022-12-18T21:36:35.348Z,47.50
2022-12-18T21:38:37.072Z,47.50
2022-12-18T21:40:39.311Z,47.50
2022-12-18T21:42:41.228Z,47.50
2022-12-18T21:44:43.355Z,47.50
2022-12-18T21:46:48.974Z,48.10
2022-12-18T21:48:55.767Z,47.50
2022-12-18T21:50:57.482Z,47.50
2022-12-18T21:52:59.359Z,47.50
2022-12-18T21:55:08.320Z,47.50
2022-12-18T21:57:11.717Z,47.50
2022-12-18T21:59:18.004Z,47.50
2022-12-18T22:01:19.850Z,47.50
2022-12-18T22:03:21.750Z,47.50
2022-12-18T22:05:23.724Z,47.50
2022-12-18T22:07:25.420Z,47.50
2022-12-18T22:09:27.623Z,47.50
2022-12-18T22:11:29.405Z,47.50
2022-12-18T22:13:31.166Z,47.60
2022-12-18T22:15:33.082Z,47.60
2022-12-18T22:17:34.947Z,47.50
2022-12-18T22:19:42.694Z,47.50
2022-12-18T22:21:46.507Z,47.50
2022-12-18T22:24:05.375Z,47.50
2022-12-18T22:26:07.191Z,47.60
2022-12-18T22:28:08.918Z,47.50
2022-12-18T22:30:11.183Z,47.50
2022-12-18T22:32:13.788Z,47.50
2022-12-18T22:34:21.999Z,48.10
2022-12-18T22:36:25.107Z,47.50
2022-12-18T22:38:26.877Z,47.60
2022-12-18T22:40:28.619Z,47.60
2022-12-18T22:42:31.514Z,47.60
2022-12-18T22:44:33.255Z,47.50
2022-12-18T22:46:36.690Z,47.50
2022-12-18T22:48:38.489Z,47.60
2022-12-18T22:50:40.511Z,47.50
2022-12-18T22:52:42.282Z,47.60
2022-12-18T22:54:44.121Z,47.50
2022-12-18T22:56:46.129Z,47.50
2022-12-18T22:58:48.466Z,47.50
2022-12-18T23:00:50.213Z,47.60
2022-12-18T23:02:59.155Z,47.50
2022-12-18T23:05:01.924Z,47.50
2022-12-18T23:07:04.706Z,47.50
2022-12-18T23:09:06.689Z,47.50
2022-12-18T23:11:08.507Z,47.50
2022-12-18T23:13:10.272Z,47.50
2022-12-18T23:15:12.096Z,47.50
2022-12-18T23:17:15.023Z,47.50
2022-12-18T23:19:16.832Z,47.50
2022-12-18T23:21:19.477Z,47.50
2022-12-18T23:23:21.966Z,47.60
2022-12-18T23:25:23.817Z,47.60
2022-12-18T23:27:25.579Z,47.50
2022-12-18T23:29:27.285Z,47.50
2022-12-18T23:31:30.143Z,47.50
2022-12-18T23:33:31.945Z,47.50
2022-12-18T23:35:33.933Z,47.50
2022-12-18T23:37:58.388Z,47.50
2022-12-18T23:39:57.460Z,47.50
2022-12-18T23:41:59.237Z,47.50
2022-12-18T23:44:01.045Z,47.50
2022-12-18T23:46:02.820Z,47.50
2022-12-18T23:48:04.737Z,47.50
2022-12-18T23:50:06.808Z,47.50
2022-12-18T23:52:08.612Z,47.50
2022-12-18T23:54:10.368Z,47.50
2022-12-18T23:56:12.981Z,47.50
2022-12-18T23:58:18.599Z,47.50
